sensor_id;sensor_type;location;lat;lon;timestamp;P1;durP1;ratioP1;P2;durP2;ratioP2
28266;SDS011;15525;45.568;5.448;2023-07-13T00:01:04;5.80;;;2.95;;
28266;SDS011;15525;45.568;5.448;2023-07-13T00:03:31;5.38;;;2.88;;
28266;SDS011;15525;45.568;5.448;2023-07-13T00:06:00;5.07;;;2.67;;
28266;SDS011;15525;45.568;5.448;2023-07-13T00:08:26;4.50;;;2.72;;
28266;SDS011;15525;45.568;5.448;2023-07-13T00:10:52;2.60;;;2.40;;
28266;SDS011;15525;45.568;5.448;2023-07-13T00:13:19;3.67;;;2.80;;
28266;SDS011;15525;45.568;5.448;2023-07-13T00:15:45;5.03;;;2.15;;
28266;SDS011;15525;45.568;5.448;2023-07-13T00:18:10;4.18;;;2.30;;
28266;SDS011;15525;45.568;5.448;2023-07-13T00:20:36;4.07;;;2.25;;
28266;SDS011;15525;45.568;5.448;2023-07-13T00:23:01;3.95;;;2.40;;
28266;SDS011;15525;45.568;5.448;2023-07-13T00:25:27;3.33;;;2.38;;
28266;SDS011;15525;45.568;5.448;2023-07-13T00:27:55;4.32;;;2.20;;
28266;SDS011;15525;45.568;5.448;2023-07-13T00:30:21;3.70;;;2.25;;
28266;SDS011;15525;45.568;5.448;2023-07-13T00:32:46;3.90;;;2.50;;
28266;SDS011;15525;45.568;5.448;2023-07-13T00:35:13;3.05;;;2.10;;
28266;SDS011;15525;45.568;5.448;2023-07-13T00:37:39;4.28;;;2.28;;
28266;SDS011;15525;45.568;5.448;2023-07-13T00:40:05;2.67;;;2.00;;
28266;SDS011;15525;45.568;5.448;2023-07-13T00:42:32;4.03;;;1.98;;
28266;SDS011;15525;45.568;5.448;2023-07-13T00:45:04;2.97;;;1.80;;
28266;SDS011;15525;45.568;5.448;2023-07-13T00:47:31;2.50;;;1.80;;
28266;SDS011;15525;45.568;5.448;2023-07-13T00:49:56;3.80;;;2.08;;
28266;SDS011;15525;45.568;5.448;2023-07-13T00:52:22;2.80;;;1.85;;
28266;SDS011;15525;45.568;5.448;2023-07-13T00:54:48;2.65;;;2.00;;
28266;SDS011;15525;45.568;5.448;2023-07-13T00:57:15;1.88;;;1.73;;
28266;SDS011;15525;45.568;5.448;2023-07-13T00:59:45;1.55;;;1.40;;
28266;SDS011;15525;45.568;5.448;2023-07-13T01:02:13;2.42;;;1.70;;
28266;SDS011;15525;45.568;5.448;2023-07-13T01:04:39;2.17;;;1.90;;
28266;SDS011;15525;45.568;5.448;2023-07-13T01:07:05;2.60;;;1.80;;
28266;SDS011;15525;45.568;5.448;2023-07-13T01:09:31;2.35;;;1.80;;
28266;SDS011;15525;45.568;5.448;2023-07-13T01:11:57;2.78;;;1.55;;
28266;SDS011;15525;45.568;5.448;2023-07-13T01:14:23;1.92;;;1.60;;
28266;SDS011;15525;45.568;5.448;2023-07-13T01:16:49;2.30;;;1.77;;
28266;SDS011;15525;45.568;5.448;2023-07-13T01:19:35;3.53;;;1.70;;
28266;SDS011;15525;45.568;5.448;2023-07-13T01:22:12;1.60;;;1.50;;
28266;SDS011;15525;45.568;5.448;2023-07-13T01:24:42;1.90;;;1.70;;
28266;SDS011;15525;45.568;5.448;2023-07-13T01:27:11;4.38;;;1.60;;
28266;SDS011;15525;45.568;5.448;2023-07-13T01:29:39;3.33;;;1.58;;
28266;SDS011;15525;45.568;5.448;2023-07-13T01:32:12;2.58;;;1.80;;
28266;SDS011;15525;45.568;5.448;2023-07-13T01:34:40;2.15;;;1.80;;
28266;SDS011;15525;45.568;5.448;2023-07-13T01:37:07;2.83;;;1.58;;
28266;SDS011;15525;45.568;5.448;2023-07-13T01:39:33;2.58;;;1.80;;
28266;SDS011;15525;45.568;5.448;2023-07-13T01:41:59;3.47;;;1.60;;
28266;SDS011;15525;45.568;5.448;2023-07-13T01:44:25;3.22;;;1.80;;
28266;SDS011;15525;45.568;5.448;2023-07-13T01:46:50;2.55;;;1.80;;
28266;SDS011;15525;45.568;5.448;2023-07-13T01:49:16;2.17;;;1.80;;
28266;SDS011;15525;45.568;5.448;2023-07-13T01:51:41;3.55;;;1.55;;
28266;SDS011;15525;45.568;5.448;2023-07-13T01:54:07;3.45;;;1.80;;
28266;SDS011;15525;45.568;5.448;2023-07-13T01:56:32;2.45;;;1.75;;
28266;SDS011;15525;45.568;5.448;2023-07-13T01:58:57;1.77;;;1.58;;
28266;SDS011;15525;45.568;5.448;2023-07-13T02:01:23;3.67;;;1.73;;
28266;SDS011;15525;45.568;5.448;2023-07-13T02:03:48;2.55;;;1.42;;
28266;SDS011;15525;45.568;5.448;2023-07-13T02:06:14;4.22;;;1.70;;
28266;SDS011;15525;45.568;5.448;2023-07-13T02:08:40;2.22;;;1.80;;
28266;SDS011;15525;45.568;5.448;2023-07-13T02:11:05;2.25;;;1.48;;
28266;SDS011;15525;45.568;5.448;2023-07-13T02:13:31;2.00;;;1.60;;
28266;SDS011;15525;45.568;5.448;2023-07-13T02:15:56;4.47;;;1.80;;
28266;SDS011;15525;45.568;5.448;2023-07-13T02:18:22;2.40;;;1.88;;
28266;SDS011;15525;45.568;5.448;2023-07-13T02:20:47;3.78;;;1.92;;
28266;SDS011;15525;45.568;5.448;2023-07-13T02:23:13;3.15;;;1.80;;
28266;SDS011;15525;45.568;5.448;2023-07-13T02:25:38;3.15;;;1.88;;
28266;SDS011;15525;45.568;5.448;2023-07-13T02:28:03;2.72;;;1.77;;
28266;SDS011;15525;45.568;5.448;2023-07-13T02:30:29;3.50;;;2.00;;
28266;SDS011;15525;45.568;5.448;2023-07-13T02:32:55;4.00;;;1.92;;
28266;SDS011;15525;45.568;5.448;2023-07-13T02:35:21;5.10;;;1.80;;
28266;SDS011;15525;45.568;5.448;2023-07-13T02:37:47;3.15;;;2.22;;
28266;SDS011;15525;45.568;5.448;2023-07-13T02:40:13;2.28;;;1.73;;
28266;SDS011;15525;45.568;5.448;2023-07-13T02:42:38;2.65;;;1.50;;
28266;SDS011;15525;45.568;5.448;2023-07-13T02:45:04;3.53;;;1.83;;
28266;SDS011;15525;45.568;5.448;2023-07-13T02:47:31;3.25;;;1.80;;
28266;SDS011;15525;45.568;5.448;2023-07-13T02:49:57;2.83;;;1.70;;
28266;SDS011;15525;45.568;5.448;2023-07-13T02:52:23;3.88;;;1.98;;
28266;SDS011;15525;45.568;5.448;2023-07-13T02:54:48;2.40;;;1.80;;
28266;SDS011;15525;45.568;5.448;2023-07-13T02:57:14;4.35;;;2.03;;
28266;SDS011;15525;45.568;5.448;2023-07-13T02:59:39;3.05;;;2.00;;
28266;SDS011;15525;45.568;5.448;2023-07-13T03:02:04;4.32;;;2.00;;
28266;SDS011;15525;45.568;5.448;2023-07-13T03:04:30;2.53;;;1.90;;
28266;SDS011;15525;45.568;5.448;2023-07-13T03:06:55;3.67;;;2.08;;
28266;SDS011;15525;45.568;5.448;2023-07-13T03:09:23;4.75;;;2.17;;
28266;SDS011;15525;45.568;5.448;2023-07-13T03:11:49;3.20;;;2.20;;
28266;SDS011;15525;45.568;5.448;2023-07-13T03:14:14;4.68;;;2.15;;
28266;SDS011;15525;45.568;5.448;2023-07-13T03:16:40;4.07;;;2.35;;
28266;SDS011;15525;45.568;5.448;2023-07-13T03:19:05;4.28;;;2.17;;
28266;SDS011;15525;45.568;5.448;2023-07-13T03:21:31;4.20;;;2.28;;
28266;SDS011;15525;45.568;5.448;2023-07-13T03:23:56;6.18;;;2.50;;
28266;SDS011;15525;45.568;5.448;2023-07-13T03:26:22;6.60;;;2.88;;
28266;SDS011;15525;45.568;5.448;2023-07-13T03:28:47;3.72;;;2.47;;
28266;SDS011;15525;45.568;5.448;2023-07-13T03:31:15;4.70;;;2.60;;
28266;SDS011;15525;45.568;5.448;2023-07-13T03:33:48;6.45;;;2.95;;
28266;SDS011;15525;45.568;5.448;2023-07-13T03:36:15;6.30;;;2.83;;
28266;SDS011;15525;45.568;5.448;2023-07-13T03:38:47;4.55;;;2.50;;
28266;SDS011;15525;45.568;5.448;2023-07-13T03:41:17;4.68;;;2.38;;
28266;SDS011;15525;45.568;5.448;2023-07-13T03:43:43;4.97;;;2.72;;
28266;SDS011;15525;45.568;5.448;2023-07-13T03:46:09;5.70;;;2.88;;
28266;SDS011;15525;45.568;5.448;2023-07-13T03:48:34;8.88;;;4.10;;
28266;SDS011;15525;45.568;5.448;2023-07-13T03:51:00;9.50;;;4.07;;
28266;SDS011;15525;45.568;5.448;2023-07-13T03:53:26;6.03;;;4.20;;
28266;SDS011;15525;45.568;5.448;2023-07-13T03:55:51;7.88;;;4.40;;
28266;SDS011;15525;45.568;5.448;2023-07-13T03:58:50;7.85;;;4.50;;
28266;SDS011;15525;45.568;5.448;2023-07-13T04:01:10;10.90;;;4.85;;
28266;SDS011;15525;45.568;5.448;2023-07-13T04:03:36;8.95;;;4.82;;
28266;SDS011;15525;45.568;5.448;2023-07-13T04:06:02;7.38;;;4.65;;
28266;SDS011;15525;45.568;5.448;2023-07-13T04:08:29;5.40;;;4.13;;
28266;SDS011;15525;45.568;5.448;2023-07-13T04:10:56;8.98;;;3.70;;
28266;SDS011;15525;45.568;5.448;2023-07-13T04:13:22;7.50;;;3.63;;
28266;SDS011;15525;45.568;5.448;2023-07-13T04:15:48;4.53;;;3.25;;
28266;SDS011;15525;45.568;5.448;2023-07-13T04:18:14;3.50;;;2.67;;
28266;SDS011;15525;45.568;5.448;2023-07-13T04:20:39;4.28;;;3.03;;
28266;SDS011;15525;45.568;5.448;2023-07-13T04:23:04;6.13;;;3.00;;
28266;SDS011;15525;45.568;5.448;2023-07-13T04:25:30;5.85;;;2.90;;
28266;SDS011;15525;45.568;5.448;2023-07-13T04:27:55;6.00;;;3.00;;
28266;SDS011;15525;45.568;5.448;2023-07-13T04:30:21;7.30;;;3.05;;
28266;SDS011;15525;45.568;5.448;2023-07-13T04:32:47;6.32;;;3.28;;
28266;SDS011;15525;45.568;5.448;2023-07-13T04:35:13;4.47;;;2.97;;
28266;SDS011;15525;45.568;5.448;2023-07-13T04:37:39;4.95;;;3.00;;
28266;SDS011;15525;45.568;5.448;2023-07-13T04:40:05;5.30;;;3.05;;
28266;SDS011;15525;45.568;5.448;2023-07-13T04:42:31;4.50;;;2.97;;
28266;SDS011;15525;45.568;5.448;2023-07-13T04:44:59;4.68;;;2.75;;
28266;SDS011;15525;45.568;5.448;2023-07-13T04:47:24;6.00;;;2.95;;
28266;SDS011;15525;45.568;5.448;2023-07-13T04:49:50;9.45;;;3.63;;
28266;SDS011;15525;45.568;5.448;2023-07-13T04:52:15;5.72;;;3.50;;
28266;SDS011;15525;45.568;5.448;2023-07-13T04:54:41;7.78;;;4.10;;
28266;SDS011;15525;45.568;5.448;2023-07-13T04:57:07;8.82;;;4.50;;
28266;SDS011;15525;45.568;5.448;2023-07-13T04:59:32;8.70;;;4.20;;
28266;SDS011;15525;45.568;5.448;2023-07-13T05:01:58;7.07;;;3.92;;
28266;SDS011;15525;45.568;5.448;2023-07-13T05:04:23;5.70;;;3.60;;
28266;SDS011;15525;45.568;5.448;2023-07-13T05:06:49;6.28;;;3.35;;
28266;SDS011;15525;45.568;5.448;2023-07-13T05:09:14;5.88;;;3.40;;
28266;SDS011;15525;45.568;5.448;2023-07-13T05:11:40;7.80;;;3.80;;
28266;SDS011;15525;45.568;5.448;2023-07-13T05:14:05;5.05;;;3.22;;
28266;SDS011;15525;45.568;5.448;2023-07-13T05:16:30;6.20;;;3.47;;
28266;SDS011;15525;45.568;5.448;2023-07-13T05:18:57;7.88;;;3.40;;
28266;SDS011;15525;45.568;5.448;2023-07-13T05:21:23;4.75;;;2.90;;
28266;SDS011;15525;45.568;5.448;2023-07-13T05:23:48;3.17;;;2.75;;
28266;SDS011;15525;45.568;5.448;2023-07-13T05:26:14;4.45;;;2.60;;
28266;SDS011;15525;45.568;5.448;2023-07-13T05:28:39;4.05;;;2.70;;
28266;SDS011;15525;45.568;5.448;2023-07-13T05:31:06;5.07;;;2.70;;
28266;SDS011;15525;45.568;5.448;2023-07-13T05:33:33;4.65;;;2.75;;
28266;SDS011;15525;45.568;5.448;2023-07-13T05:35:58;5.10;;;2.88;;
28266;SDS011;15525;45.568;5.448;2023-07-13T05:38:25;5.03;;;2.78;;
28266;SDS011;15525;45.568;5.448;2023-07-13T05:40:52;4.30;;;2.90;;
28266;SDS011;15525;45.568;5.448;2023-07-13T05:43:19;4.32;;;3.20;;
28266;SDS011;15525;45.568;5.448;2023-07-13T05:45:44;4.95;;;2.72;;
28266;SDS011;15525;45.568;5.448;2023-07-13T05:48:10;4.93;;;2.90;;
28266;SDS011;15525;45.568;5.448;2023-07-13T05:50:35;5.53;;;3.03;;
28266;SDS011;15525;45.568;5.448;2023-07-13T05:53:01;6.68;;;3.05;;
28266;SDS011;15525;45.568;5.448;2023-07-13T05:55:26;4.57;;;2.90;;
28266;SDS011;15525;45.568;5.448;2023-07-13T05:57:52;4.85;;;3.00;;
28266;SDS011;15525;45.568;5.448;2023-07-13T06:00:17;4.85;;;2.97;;
28266;SDS011;15525;45.568;5.448;2023-07-13T06:02:43;7.72;;;3.47;;
28266;SDS011;15525;45.568;5.448;2023-07-13T06:05:08;6.90;;;3.28;;
28266;SDS011;15525;45.568;5.448;2023-07-13T06:07:34;6.38;;;3.13;;
28266;SDS011;15525;45.568;5.448;2023-07-13T06:09:59;4.68;;;2.90;;
28266;SDS011;15525;45.568;5.448;2023-07-13T06:12:25;4.85;;;3.08;;
28266;SDS011;15525;45.568;5.448;2023-07-13T06:14:51;6.80;;;3.33;;
28266;SDS011;15525;45.568;5.448;2023-07-13T06:17:16;7.10;;;3.28;;
28266;SDS011;15525;45.568;5.448;2023-07-13T06:19:42;5.03;;;3.00;;
28266;SDS011;15525;45.568;5.448;2023-07-13T06:22:07;6.03;;;4.05;;
28266;SDS011;15525;45.568;5.448;2023-07-13T06:24:33;10.60;;;4.60;;
28266;SDS011;15525;45.568;5.448;2023-07-13T06:26:58;6.00;;;3.40;;
28266;SDS011;15525;45.568;5.448;2023-07-13T06:29:23;6.93;;;3.70;;
28266;SDS011;15525;45.568;5.448;2023-07-13T06:31:49;5.72;;;4.00;;
28266;SDS011;15525;45.568;5.448;2023-07-13T06:34:14;6.55;;;3.90;;
28266;SDS011;15525;45.568;5.448;2023-07-13T06:36:40;4.35;;;3.20;;
28266;SDS011;15525;45.568;5.448;2023-07-13T06:39:06;7.80;;;3.25;;
28266;SDS011;15525;45.568;5.448;2023-07-13T06:41:32;5.78;;;3.53;;
28266;SDS011;15525;45.568;5.448;2023-07-13T06:43:58;5.20;;;3.00;;
28266;SDS011;15525;45.568;5.448;2023-07-13T06:46:23;7.75;;;3.38;;
28266;SDS011;15525;45.568;5.448;2023-07-13T06:48:49;4.35;;;3.28;;
28266;SDS011;15525;45.568;5.448;2023-07-13T06:51:15;6.28;;;3.28;;
28266;SDS011;15525;45.568;5.448;2023-07-13T06:53:40;7.05;;;3.70;;
28266;SDS011;15525;45.568;5.448;2023-07-13T06:56:08;6.38;;;3.30;;
28266;SDS011;15525;45.568;5.448;2023-07-13T06:58:35;5.10;;;3.20;;
28266;SDS011;15525;45.568;5.448;2023-07-13T07:01:00;6.15;;;3.40;;
28266;SDS011;15525;45.568;5.448;2023-07-13T07:03:26;4.47;;;3.10;;
28266;SDS011;15525;45.568;5.448;2023-07-13T07:05:51;5.63;;;3.15;;
28266;SDS011;15525;45.568;5.448;2023-07-13T07:08:16;6.10;;;3.70;;
28266;SDS011;15525;45.568;5.448;2023-07-13T07:10:42;5.78;;;3.35;;
28266;SDS011;15525;45.568;5.448;2023-07-13T07:13:07;4.75;;;3.38;;
28266;SDS011;15525;45.568;5.448;2023-07-13T07:15:34;5.82;;;3.63;;
28266;SDS011;15525;45.568;5.448;2023-07-13T07:18:00;6.00;;;3.22;;
28266;SDS011;15525;45.568;5.448;2023-07-13T07:20:25;5.38;;;3.25;;
28266;SDS011;15525;45.568;5.448;2023-07-13T07:22:51;5.53;;;2.70;;
28266;SDS011;15525;45.568;5.448;2023-07-13T07:25:17;3.25;;;2.60;;
28266;SDS011;15525;45.568;5.448;2023-07-13T07:27:43;4.32;;;3.08;;
28266;SDS011;15525;45.568;5.448;2023-07-13T07:30:09;5.75;;;2.88;;
28266;SDS011;15525;45.568;5.448;2023-07-13T07:32:36;7.32;;;2.95;;
28266;SDS011;15525;45.568;5.448;2023-07-13T07:35:01;6.32;;;3.20;;
28266;SDS011;15525;45.568;5.448;2023-07-13T07:37:27;7.93;;;3.22;;
28266;SDS011;15525;45.568;5.448;2023-07-13T07:39:52;9.73;;;3.80;;
28266;SDS011;15525;45.568;5.448;2023-07-13T07:42:18;5.90;;;2.85;;
28266;SDS011;15525;45.568;5.448;2023-07-13T07:44:43;5.68;;;3.45;;
28266;SDS011;15525;45.568;5.448;2023-07-13T07:47:09;5.57;;;3.13;;
28266;SDS011;15525;45.568;5.448;2023-07-13T07:49:34;8.80;;;3.15;;
28266;SDS011;15525;45.568;5.448;2023-07-13T07:52:01;6.43;;;3.78;;
28266;SDS011;15525;45.568;5.448;2023-07-13T07:54:26;8.13;;;3.25;;
28266;SDS011;15525;45.568;5.448;2023-07-13T07:56:52;6.30;;;3.38;;
28266;SDS011;15525;45.568;5.448;2023-07-13T07:59:18;6.55;;;3.20;;
28266;SDS011;15525;45.568;5.448;2023-07-13T08:01:44;5.03;;;3.30;;
28266;SDS011;15525;45.568;5.448;2023-07-13T08:04:11;10.90;;;5.00;;
28266;SDS011;15525;45.568;5.448;2023-07-13T08:06:37;14.65;;;7.97;;
28266;SDS011;15525;45.568;5.448;2023-07-13T08:09:02;13.73;;;7.28;;
28266;SDS011;15525;45.568;5.448;2023-07-13T08:11:29;8.52;;;5.60;;
28266;SDS011;15525;45.568;5.448;2023-07-13T08:13:54;11.50;;;6.65;;
28266;SDS011;15525;45.568;5.448;2023-07-13T08:16:20;11.20;;;6.15;;
28266;SDS011;15525;45.568;5.448;2023-07-13T08:18:45;7.95;;;5.00;;
28266;SDS011;15525;45.568;5.448;2023-07-13T08:21:11;6.45;;;3.75;;
28266;SDS011;15525;45.568;5.448;2023-07-13T08:23:36;8.15;;;3.55;;
28266;SDS011;15525;45.568;5.448;2023-07-13T08:26:02;7.20;;;3.88;;
28266;SDS011;15525;45.568;5.448;2023-07-13T08:28:29;5.95;;;3.08;;
28266;SDS011;15525;45.568;5.448;2023-07-13T08:30:55;6.43;;;2.88;;
28266;SDS011;15525;45.568;5.448;2023-07-13T08:33:21;5.00;;;3.05;;
28266;SDS011;15525;45.568;5.448;2023-07-13T08:35:49;11.82;;;7.38;;
28266;SDS011;15525;45.568;5.448;2023-07-13T08:38:16;42.92;;;10.07;;
28266;SDS011;15525;45.568;5.448;2023-07-13T08:40:43;65.85;;;10.70;;
28266;SDS011;15525;45.568;5.448;2023-07-13T08:43:13;11.70;;;6.32;;
28266;SDS011;15525;45.568;5.448;2023-07-13T08:48:21;6.75;;;4.18;;
28266;SDS011;15525;45.568;5.448;2023-07-13T08:50:55;10.10;;;3.60;;
28266;SDS011;15525;45.568;5.448;2023-07-13T08:53:23;7.95;;;3.70;;
28266;SDS011;15525;45.568;5.448;2023-07-13T08:56:01;4.25;;;2.80;;
28266;SDS011;15525;45.568;5.448;2023-07-13T09:01:24;4.60;;;3.10;;
28266;SDS011;15525;45.568;5.448;2023-07-13T09:04:07;7.05;;;3.28;;
28266;SDS011;15525;45.568;5.448;2023-07-13T09:06:42;8.57;;;4.15;;
28266;SDS011;15525;45.568;5.448;2023-07-13T09:12:02;8.13;;;4.77;;
28266;SDS011;15525;45.568;5.448;2023-07-13T09:14:51;12.07;;;4.53;;
28266;SDS011;15525;45.568;5.448;2023-07-13T09:17:23;7.93;;;4.10;;
28266;SDS011;15525;45.568;5.448;2023-07-13T09:20:02;7.82;;;4.70;;
28266;SDS011;15525;45.568;5.448;2023-07-13T09:22:34;5.03;;;3.42;;
28266;SDS011;15525;45.568;5.448;2023-07-13T09:25:36;6.15;;;3.00;;
28266;SDS011;15525;45.568;5.448;2023-07-13T09:28:02;7.93;;;3.17;;
28266;SDS011;15525;45.568;5.448;2023-07-13T09:30:38;6.13;;;3.80;;
28266;SDS011;15525;45.568;5.448;2023-07-13T09:33:51;11.80;;;4.20;;
28266;SDS011;15525;45.568;5.448;2023-07-13T09:36:30;7.88;;;4.13;;
28266;SDS011;15525;45.568;5.448;2023-07-13T09:44:55;6.07;;;3.10;;
28266;SDS011;15525;45.568;5.448;2023-07-13T09:47:29;6.65;;;3.40;;
28266;SDS011;15525;45.568;5.448;2023-07-13T09:49:57;5.93;;;3.33;;
28266;SDS011;15525;45.568;5.448;2023-07-13T09:52:45;5.30;;;3.10;;
28266;SDS011;15525;45.568;5.448;2023-07-13T09:55:22;3.83;;;3.05;;
28266;SDS011;15525;45.568;5.448;2023-07-13T09:57:49;5.63;;;3.00;;
28266;SDS011;15525;45.568;5.448;2023-07-13T10:00:20;6.05;;;2.65;;
28266;SDS011;15525;45.568;5.448;2023-07-13T10:02:57;5.15;;;2.72;;
28266;SDS011;15525;45.568;5.448;2023-07-13T10:05:40;6.30;;;3.55;;
28266;SDS011;15525;45.568;5.448;2023-07-13T10:08:17;8.07;;;3.35;;
28266;SDS011;15525;45.568;5.448;2023-07-13T10:11:08;5.05;;;2.97;;
28266;SDS011;15525;45.568;5.448;2023-07-13T10:13:59;5.00;;;3.17;;
28266;SDS011;15525;45.568;5.448;2023-07-13T10:16:31;3.28;;;2.80;;
28266;SDS011;15525;45.568;5.448;2023-07-13T10:18:59;3.97;;;2.60;;
28266;SDS011;15525;45.568;5.448;2023-07-13T10:21:33;3.25;;;2.70;;
28266;SDS011;15525;45.568;5.448;2023-07-13T10:24:22;4.18;;;2.70;;
28266;SDS011;15525;45.568;5.448;2023-07-13T10:32:24;4.68;;;2.83;;
28266;SDS011;15525;45.568;5.448;2023-07-13T10:34:49;7.57;;;2.65;;
28266;SDS011;15525;45.568;5.448;2023-07-13T10:37:22;6.28;;;3.05;;
28266;SDS011;15525;45.568;5.448;2023-07-13T10:39:52;6.15;;;3.15;;
28266;SDS011;15525;45.568;5.448;2023-07-13T10:42:37;4.68;;;2.95;;
28266;SDS011;15525;45.568;5.448;2023-07-13T10:45:24;3.40;;;2.67;;
28266;SDS011;15525;45.568;5.448;2023-07-13T10:47:52;6.18;;;2.70;;
28266;SDS011;15525;45.568;5.448;2023-07-13T10:50:25;4.93;;;2.92;;
28266;SDS011;15525;45.568;5.448;2023-07-13T10:52:55;4.45;;;3.10;;
28266;SDS011;15525;45.568;5.448;2023-07-13T10:55:30;3.67;;;2.83;;
28266;SDS011;15525;45.568;5.448;2023-07-13T10:58:12;4.20;;;2.67;;
28266;SDS011;15525;45.568;5.448;2023-07-13T11:01:21;4.55;;;2.38;;
28266;SDS011;15525;45.568;5.448;2023-07-13T11:03:31;4.40;;;2.63;;
28266;SDS011;15525;45.568;5.448;2023-07-13T11:06:05;2.60;;;2.40;;
28266;SDS011;15525;45.568;5.448;2023-07-13T11:18:41;5.25;;;2.47;;
28266;SDS011;15525;45.568;5.448;2023-07-13T11:21:20;4.50;;;2.40;;
28266;SDS011;15525;45.568;5.448;2023-07-13T11:23:54;3.08;;;2.30;;
28266;SDS011;15525;45.568;5.448;2023-07-13T11:29:47;3.45;;;2.30;;
28266;SDS011;15525;45.568;5.448;2023-07-13T11:31:58;3.03;;;2.22;;
28266;SDS011;15525;45.568;5.448;2023-07-13T11:34:36;4.40;;;2.00;;
28266;SDS011;15525;45.568;5.448;2023-07-13T11:37:04;2.47;;;2.10;;
28266;SDS011;15525;45.568;5.448;2023-07-13T11:39:39;7.47;;;2.40;;
28266;SDS011;15525;45.568;5.448;2023-07-13T11:42:10;6.65;;;2.17;;
28266;SDS011;15525;45.568;5.448;2023-07-13T11:44:42;1.98;;;1.80;;
28266;SDS011;15525;45.568;5.448;2023-07-13T11:47:17;3.03;;;2.10;;
28266;SDS011;15525;45.568;5.448;2023-07-13T11:49:49;5.20;;;2.17;;
28266;SDS011;15525;45.568;5.448;2023-07-13T11:52:22;3.60;;;2.05;;
28266;SDS011;15525;45.568;5.448;2023-07-13T11:54:53;4.70;;;2.25;;
28266;SDS011;15525;45.568;5.448;2023-07-13T12:05:03;5.18;;;2.22;;
28266;SDS011;15525;45.568;5.448;2023-07-13T12:07:31;3.13;;;2.10;;
28266;SDS011;15525;45.568;5.448;2023-07-13T12:12:56;5.95;;;2.28;;
28266;SDS011;15525;45.568;5.448;2023-07-13T12:15:37;4.10;;;2.10;;
28266;SDS011;15525;45.568;5.448;2023-07-13T12:18:14;3.25;;;2.33;;
28266;SDS011;15525;45.568;5.448;2023-07-13T12:20:55;6.28;;;2.30;;
28266;SDS011;15525;45.568;5.448;2023-07-13T12:23:28;2.03;;;1.80;;
28266;SDS011;15525;45.568;5.448;2023-07-13T12:25:55;4.23;;;2.07;;
28266;SDS011;15525;45.568;5.448;2023-07-13T12:28:30;3.50;;;1.83;;
28266;SDS011;15525;45.568;5.448;2023-07-13T12:30:59;3.58;;;2.25;;
28266;SDS011;15525;45.568;5.448;2023-07-13T12:33:28;2.72;;;1.85;;
28266;SDS011;15525;45.568;5.448;2023-07-13T12:35:54;4.25;;;1.90;;
28266;SDS011;15525;45.568;5.448;2023-07-13T12:38:21;2.28;;;1.73;;
28266;SDS011;15525;45.568;5.448;2023-07-13T12:40:49;3.88;;;1.98;;
28266;SDS011;15525;45.568;5.448;2023-07-13T12:43:17;4.75;;;1.90;;
28266;SDS011;15525;45.568;5.448;2023-07-13T12:46:04;3.00;;;1.88;;
28266;SDS011;15525;45.568;5.448;2023-07-13T12:48:41;6.15;;;2.50;;
28266;SDS011;15525;45.568;5.448;2023-07-13T12:51:09;3.83;;;2.38;;
28266;SDS011;15525;45.568;5.448;2023-07-13T12:53:38;4.60;;;2.33;;
28266;SDS011;15525;45.568;5.448;2023-07-13T12:56:10;3.90;;;1.73;;
28266;SDS011;15525;45.568;5.448;2023-07-13T12:58:42;2.08;;;1.70;;
28266;SDS011;15525;45.568;5.448;2023-07-13T13:01:11;2.78;;;1.63;;
28266;SDS011;15525;45.568;5.448;2023-07-13T13:03:39;5.75;;;2.15;;
28266;SDS011;15525;45.568;5.448;2023-07-13T13:08:41;2.92;;;1.90;;
28266;SDS011;15525;45.568;5.448;2023-07-13T13:11:08;3.25;;;1.80;;
28266;SDS011;15525;45.568;5.448;2023-07-13T13:13:34;2.35;;;2.03;;
28266;SDS011;15525;45.568;5.448;2023-07-13T13:18:50;2.33;;;1.80;;
28266;SDS011;15525;45.568;5.448;2023-07-13T13:21:17;3.65;;;1.98;;
28266;SDS011;15525;45.568;5.448;2023-07-13T13:23:44;3.78;;;1.88;;
28266;SDS011;15525;45.568;5.448;2023-07-13T13:26:11;3.38;;;2.25;;
28266;SDS011;15525;45.568;5.448;2023-07-13T13:28:40;7.20;;;2.50;;
28266;SDS011;15525;45.568;5.448;2023-07-13T13:31:07;2.20;;;1.90;;
28266;SDS011;15525;45.568;5.448;2023-07-13T13:33:37;3.03;;;2.50;;
28266;SDS011;15525;45.568;5.448;2023-07-13T13:36:09;5.32;;;3.70;;
28266;SDS011;15525;45.568;5.448;2023-07-13T13:38:42;4.25;;;2.15;;
28266;SDS011;15525;45.568;5.448;2023-07-13T13:41:11;5.82;;;3.83;;
28266;SDS011;15525;45.568;5.448;2023-07-13T13:43:39;5.88;;;3.85;;
28266;SDS011;15525;45.568;5.448;2023-07-13T13:46:16;3.30;;;2.13;;
28266;SDS011;15525;45.568;5.448;2023-07-13T13:48:44;2.97;;;1.95;;
28266;SDS011;15525;45.568;5.448;2023-07-13T13:51:15;3.28;;;1.98;;
28266;SDS011;15525;45.568;5.448;2023-07-13T13:53:42;6.38;;;2.10;;
28266;SDS011;15525;45.568;5.448;2023-07-13T13:56:08;5.13;;;1.90;;
28266;SDS011;15525;45.568;5.448;2023-07-13T13:58:34;3.10;;;1.80;;
28266;SDS011;15525;45.568;5.448;2023-07-13T14:00:59;3.55;;;1.73;;
28266;SDS011;15525;45.568;5.448;2023-07-13T14:03:26;1.83;;;1.70;;
28266;SDS011;15525;45.568;5.448;2023-07-13T14:05:53;4.03;;;1.70;;
28266;SDS011;15525;45.568;5.448;2023-07-13T14:08:19;2.42;;;1.80;;
28266;SDS011;15525;45.568;5.448;2023-07-13T14:10:46;3.30;;;2.00;;
28266;SDS011;15525;45.568;5.448;2023-07-13T14:13:19;3.05;;;1.90;;
28266;SDS011;15525;45.568;5.448;2023-07-13T14:16:10;3.83;;;1.90;;
28266;SDS011;15525;45.568;5.448;2023-07-13T14:18:38;3.42;;;1.98;;
28266;SDS011;15525;45.568;5.448;2023-07-13T14:21:08;6.30;;;2.03;;
28266;SDS011;15525;45.568;5.448;2023-07-13T14:23:37;7.07;;;2.38;;
28266;SDS011;15525;45.568;5.448;2023-07-13T14:26:06;4.95;;;2.20;;
28266;SDS011;15525;45.568;5.448;2023-07-13T14:28:35;3.67;;;2.00;;
28266;SDS011;15525;45.568;5.448;2023-07-13T14:31:03;4.05;;;2.42;;
28266;SDS011;15525;45.568;5.448;2023-07-13T14:33:29;3.65;;;2.08;;
28266;SDS011;15525;45.568;5.448;2023-07-13T14:35:55;2.80;;;2.05;;
28266;SDS011;15525;45.568;5.448;2023-07-13T14:38:21;5.22;;;2.15;;
28266;SDS011;15525;45.568;5.448;2023-07-13T14:40:47;10.50;;;2.53;;
28266;SDS011;15525;45.568;5.448;2023-07-13T14:43:13;3.25;;;1.80;;
28266;SDS011;15525;45.568;5.448;2023-07-13T14:45:41;3.20;;;1.85;;
28266;SDS011;15525;45.568;5.448;2023-07-13T14:48:19;6.72;;;2.05;;
28266;SDS011;15525;45.568;5.448;2023-07-13T14:50:49;3.72;;;1.80;;
28266;SDS011;15525;45.568;5.448;2023-07-13T14:53:18;4.43;;;2.00;;
28266;SDS011;15525;45.568;5.448;2023-07-13T14:55:44;3.15;;;1.80;;
28266;SDS011;15525;45.568;5.448;2023-07-13T14:58:09;2.45;;;2.00;;
28266;SDS011;15525;45.568;5.448;2023-07-13T15:00:35;3.55;;;2.10;;
28266;SDS011;15525;45.568;5.448;2023-07-13T15:03:02;3.78;;;2.30;;
28266;SDS011;15525;45.568;5.448;2023-07-13T15:05:31;3.17;;;1.90;;
28266;SDS011;15525;45.568;5.448;2023-07-13T15:07:58;4.47;;;2.22;;
28266;SDS011;15525;45.568;5.448;2023-07-13T15:10:27;4.38;;;2.00;;
28266;SDS011;15525;45.568;5.448;2023-07-13T15:13:00;3.95;;;2.20;;
28266;SDS011;15525;45.568;5.448;2023-07-13T15:15:38;2.72;;;2.17;;
28266;SDS011;15525;45.568;5.448;2023-07-13T15:18:11;3.83;;;2.00;;
28266;SDS011;15525;45.568;5.448;2023-07-13T15:20:39;3.58;;;1.98;;
28266;SDS011;15525;45.568;5.448;2023-07-13T15:23:05;6.13;;;2.00;;
28266;SDS011;15525;45.568;5.448;2023-07-13T15:25:31;3.17;;;1.80;;
28266;SDS011;15525;45.568;5.448;2023-07-13T15:27:59;3.53;;;1.90;;
28266;SDS011;15525;45.568;5.448;2023-07-13T15:30:27;6.65;;;2.10;;
28266;SDS011;15525;45.568;5.448;2023-07-13T15:32:55;4.25;;;2.50;;
28266;SDS011;15525;45.568;5.448;2023-07-13T15:35:24;3.85;;;2.20;;
28266;SDS011;15525;45.568;5.448;2023-07-13T15:37:51;5.68;;;2.70;;
28266;SDS011;15525;45.568;5.448;2023-07-13T15:40:17;2.95;;;2.45;;
28266;SDS011;15525;45.568;5.448;2023-07-13T15:42:44;4.97;;;2.28;;
28266;SDS011;15525;45.568;5.448;2023-07-13T15:45:22;4.95;;;2.47;;